Time;durP1;ratioP1;P1;durP2;ratioP2;P2;SDS_P1;SDS_P2;PMS_P1;PMS_P2;Temp;Humidity;BMP_temperature;BMP_pressure;BME280_temperature;BME280_humidity;BME280_pressure;Samples;Min_cycle;Max_cycle;Signal;HPM_P1;HPM_P2
2023/07/16 00:00:27;;;;;;;15.40;7.37;;;24.30;79.90;;;;;;5097995;28;20973;-78
2023/07/16 00:02:57;;;;;;;11.20;7.43;;;24.30;79.90;;;;;;5096865;28;20654;-78
2023/07/16 00:05:25;;;;;;;13.00;7.60;;;24.20;80.10;;;;;;5102016;28;20533;-78
2023/07/16 00:07:53;;;;;;;10.90;6.57;;;24.10;80.20;;;;;;5108352;28;21000;-78
2023/07/16 00:10:22;;;;;;;9.83;5.87;;;24.00;80.30;;;;;;5102460;28;20468;-78
2023/07/16 00:12:50;;;;;;;11.67;5.50;;;24.00;80.50;;;;;;5104557;28;20954;-77
2023/07/16 00:15:19;;;;;;;7.70;4.03;;;24.00;80.50;;;;;;5105051;27;20471;-77
2023/07/16 00:17:46;;;;;;;7.43;3.43;;;24.00;80.30;;;;;;5099639;27;20492;-78
2023/07/16 00:20:15;;;;;;;7.90;4.30;;;24.00;80.30;;;;;;5103645;27;20456;-78
2023/07/16 00:22:43;;;;;;;9.80;4.40;;;24.00;80.20;;;;;;5099558;28;20491;-77
2023/07/16 00:25:11;;;;;;;7.17;3.73;;;23.90;80.10;;;;;;5102953;28;20457;-78
2023/07/16 00:27:40;;;;;;;9.80;4.37;;;23.90;80.10;;;;;;5100629;28;20441;-78
2023/07/16 00:30:09;;;;;;;6.67;4.20;;;23.90;80.10;;;;;;5104930;28;21209;-77
2023/07/16 00:32:38;;;;;;;14.43;4.30;;;23.90;80.10;;;;;;5105057;28;20456;-77
2023/07/16 00:35:06;;;;;;;8.00;3.70;;;23.80;80.10;;;;;;5104266;28;20989;-77
2023/07/16 00:37:34;;;;;;;6.70;3.73;;;23.80;80.10;;;;;;5102058;28;21133;-78
2023/07/16 00:40:04;;;;;;;6.30;3.80;;;23.80;80.10;;;;;;5099983;28;20450;-77
2023/07/16 00:42:32;;;;;;;7.90;3.70;;;23.80;80.00;;;;;;5107620;27;20540;-77
2023/07/16 00:45:01;;;;;;;7.40;3.17;;;23.70;79.90;;;;;;5103211;27;20493;-78
2023/07/16 00:47:29;;;;;;;7.17;3.60;;;23.70;79.90;;;;;;5099806;28;20471;-78
2023/07/16 00:49:58;;;;;;;8.67;3.37;;;23.70;79.80;;;;;;5101016;28;20460;-78
2023/07/16 00:52:28;;;;;;;7.37;3.33;;;23.70;79.80;;;;;;5104950;28;20895;-79
2023/07/16 00:54:56;;;;;;;6.57;3.07;;;23.70;79.80;;;;;;5108218;28;21031;-78
2023/07/16 00:57:25;;;;;;;6.23;2.87;;;23.70;79.70;;;;;;5102451;28;20463;-77
2023/07/16 00:59:53;;;;;;;8.57;3.20;;;23.60;79.70;;;;;;5106131;28;20492;-78
2023/07/16 01:02:22;;;;;;;7.57;2.90;;;23.60;79.80;;;;;;5101654;27;20949;-78
2023/07/16 01:04:50;;;;;;;8.80;3.23;;;23.60;79.70;;;;;;5103180;28;20452;-77
2023/07/16 01:07:20;;;;;;;6.77;3.40;;;23.60;79.70;;;;;;5105786;27;20972;-78
2023/07/16 01:09:51;;;;;;;5.93;2.80;;;23.60;79.60;;;;;;5100659;28;20452;-76
2023/07/16 01:12:21;;;;;;;4.90;2.70;;;23.60;79.60;;;;;;5098628;28;20536;-77
2023/07/16 01:14:50;;;;;;;6.50;2.87;;;23.60;79.50;;;;;;5098109;28;20495;-77
2023/07/16 01:17:18;;;;;;;5.33;2.30;;;23.60;79.50;;;;;;5097865;28;20560;-77
2023/07/16 01:19:48;;;;;;;10.90;3.30;;;23.60;79.60;;;;;;5097776;27;20551;-77
2023/07/16 01:22:42;;;;;;;5.57;3.20;;;23.60;79.60;;;;;;5104687;28;21025;-77
2023/07/16 01:25:43;;;;;;;6.57;3.00;;;23.60;79.60;;;;;;5101662;28;21139;-78
2023/07/16 01:28:23;;;;;;;7.27;3.00;;;23.60;79.50;;;;;;5102703;28;20499;-78
2023/07/16 01:30:55;;;;;;;5.70;2.77;;;23.50;79.60;;;;;;5098693;28;20484;-78
2023/07/16 01:33:24;;;;;;;7.80;3.07;;;23.50;79.60;;;;;;5098484;27;21041;-78
2023/07/16 01:35:52;;;;;;;6.30;3.10;;;23.50;79.60;;;;;;5104723;28;20480;-77
2023/07/16 01:38:23;;;;;;;9.63;3.00;;;23.60;79.50;;;;;;5101516;27;20555;-78
2023/07/16 01:40:51;;;;;;;5.93;2.60;;;23.50;79.50;;;;;;5094613;28;20804;-78
2023/07/16 01:43:19;;;;;;;9.03;2.83;;;23.60;79.50;;;;;;5096141;28;20478;-77
2023/07/16 01:45:47;;;;;;;6.27;3.30;;;23.60;79.50;;;;;;5104415;28;20450;-77
2023/07/16 01:48:28;;;;;;;8.43;3.20;;;23.50;79.40;;;;;;5103771;28;20538;-77
2023/07/16 01:50:56;;;;;;;7.23;2.97;;;23.50;79.40;;;;;;5101095;28;20528;-78
2023/07/16 01:53:25;;;;;;;6.87;3.30;;;23.40;79.50;;;;;;5099752;28;20817;-77
2023/07/16 01:55:53;;;;;;;8.53;2.80;;;23.40;79.50;;;;;;5095541;28;20493;-76
2023/07/16 01:58:21;;;;;;;7.80;2.70;;;23.40;79.50;;;;;;5100765;28;20455;-79
2023/07/16 02:00:51;;;;;;;7.33;2.77;;;23.40;79.50;;;;;;5100225;28;20468;-78
2023/07/16 02:03:20;;;;;;;8.00;2.00;;;23.30;79.50;;;;;;5101247;28;20563;-77
2023/07/16 02:05:49;;;;;;;5.70;2.47;;;23.30;79.40;;;;;;5098896;28;20540;-77
2023/07/16 02:08:17;;;;;;;7.37;2.10;;;23.20;79.30;;;;;;5098238;28;20456;-77
2023/07/16 02:10:47;;;;;;;6.10;2.00;;;23.20;79.30;;;;;;5098190;28;20461;-78
2023/07/16 02:13:15;;;;;;;7.80;2.60;;;23.10;79.20;;;;;;5101803;28;20460;-77
2023/07/16 02:15:44;;;;;;;6.63;2.20;;;23.10;79.10;;;;;;5099862;28;20492;-78
2023/07/16 02:18:12;;;;;;;6.47;2.10;;;23.00;79.00;;;;;;5099590;28;21029;-77
2023/07/16 02:20:41;;;;;;;5.93;2.17;;;23.00;78.90;;;;;;5098168;28;21332;-77
2023/07/16 02:23:09;;;;;;;5.80;1.90;;;22.90;78.90;;;;;;5099634;28;21071;-78
2023/07/16 02:25:37;;;;;;;8.63;1.87;;;22.90;78.70;;;;;;5097366;28;20460;-79
2023/07/16 02:28:05;;;;;;;5.60;2.00;;;22.80;78.70;;;;;;5103079;28;20456;-77
2023/07/16 02:30:33;;;;;;;6.93;1.97;;;22.80;78.70;;;;;;5097404;28;20804;-78
2023/07/16 02:33:02;;;;;;;5.20;2.00;;;22.80;78.50;;;;;;5101619;28;20488;-77
2023/07/16 02:35:30;;;;;;;4.80;1.90;;;22.70;78.60;;;;;;5098613;28;20483;-78
2023/07/16 02:37:59;;;;;;;6.60;1.90;;;22.80;78.50;;;;;;5100909;28;20468;-77
2023/07/16 02:40:27;;;;;;;6.50;2.10;;;22.80;78.20;;;;;;5099536;28;20466;-77
2023/07/16 02:42:55;;;;;;;5.97;1.93;;;22.70;78.20;;;;;;5100987;28;20462;-78
2023/07/16 02:45:23;;;;;;;7.87;1.87;;;22.60;78.10;;;;;;5099290;28;20484;-78
2023/07/16 02:47:51;;;;;;;7.10;2.43;;;22.60;78.00;;;;;;5104105;28;20466;-78
2023/07/16 02:50:19;;;;;;;5.43;2.00;;;22.60;78.10;;;;;;5100836;28;20479;-77
2023/07/16 02:52:47;;;;;;;7.33;2.27;;;22.60;78.00;;;;;;5101684;28;20460;-77
2023/07/16 02:55:16;;;;;;;6.90;2.10;;;22.60;77.90;;;;;;5107970;28;20484;-77
2023/07/16 02:57:44;;;;;;;6.33;1.97;;;22.60;77.90;;;;;;5100121;28;20461;-78
2023/07/16 03:00:13;;;;;;;9.10;2.30;;;22.60;77.80;;;;;;5101727;28;20463;-78
2023/07/16 03:02:41;;;;;;;9.40;2.33;;;22.60;77.70;;;;;;5104932;28;20452;-77
2023/07/16 03:05:09;;;;;;;6.97;2.27;;;22.50;77.60;;;;;;5102302;28;20464;-78
2023/07/16 03:07:37;;;;;;;12.30;2.30;;;22.50;77.60;;;;;;5101354;28;20492;-78
2023/07/16 03:10:06;;;;;;;5.50;1.83;;;22.50;77.50;;;;;;5105772;28;20996;-79
2023/07/16 03:12:35;;;;;;;9.73;2.30;;;22.40;77.50;;;;;;5103689;28;20459;-77
2023/07/16 03:15:04;;;;;;;7.87;2.10;;;22.40;77.60;;;;;;5098926;28;20494;-78
2023/07/16 03:17:33;;;;;;;8.33;2.20;;;22.40;77.50;;;;;;5102404;28;20444;-78
2023/07/16 03:20:03;;;;;;;12.77;2.70;;;22.40;77.50;;;;;;5105830;28;20456;-77
2023/07/16 03:22:33;;;;;;;11.50;2.57;;;22.30;77.60;;;;;;5105745;28;20472;-77
2023/07/16 03:25:02;;;;;;;9.43;2.97;;;22.30;77.70;;;;;;5102249;28;20491;-77
2023/07/16 03:27:30;;;;;;;14.83;2.60;;;22.30;77.70;;;;;;5100842;28;20451;-77
2023/07/16 03:30:02;;;;;;;8.73;2.83;;;22.30;77.70;;;;;;5102321;28;20911;-77
2023/07/16 03:32:29;;;;;;;12.13;2.70;;;22.30;77.60;;;;;;5105412;27;20501;-76
2023/07/16 03:35:13;;;;;;;11.73;2.67;;;22.30;77.60;;;;;;5104749;27;20543;-77
2023/07/16 03:37:41;;;;;;;13.70;2.83;;;22.20;77.60;;;;;;5102865;28;20448;-77
2023/07/16 03:40:17;;;;;;;10.43;2.43;;;22.30;77.60;;;;;;5105209;28;20501;-77
2023/07/16 03:42:47;;;;;;;11.53;3.17;;;22.30;77.50;;;;;;5105306;28;20567;-78
2023/07/16 03:45:16;;;;;;;12.60;3.07;;;22.20;77.60;;;;;;5102630;28;20455;-77
2023/07/16 03:47:44;;;;;;;17.83;3.53;;;22.20;77.60;;;;;;5102440;28;20457;-77
2023/07/16 03:50:13;;;;;;;14.23;3.33;;;22.30;77.60;;;;;;5102185;28;20460;-76
2023/07/16 03:52:41;;;;;;;13.27;2.90;;;22.30;77.60;;;;;;5103737;28;20491;-77
2023/07/16 03:55:10;;;;;;;21.77;3.57;;;22.20;77.50;;;;;;5106843;28;20444;-78
2023/07/16 03:57:39;;;;;;;21.43;3.20;;;22.20;77.50;;;;;;5107645;28;20472;-77
2023/07/16 04:00:25;;;;;;;11.10;3.40;;;22.20;77.50;;;;;;5098207;28;20457;-77
2023/07/16 04:02:53;;;;;;;18.97;3.20;;;22.20;77.60;;;;;;5100333;28;20571;-77
2023/07/16 04:05:22;;;;;;;24.93;3.17;;;22.20;77.60;;;;;;5098775;28;20468;-77
2023/07/16 04:07:51;;;;;;;15.90;3.43;;;22.20;77.60;;;;;;5101447;28;20541;-77
2023/07/16 04:10:19;;;;;;;19.30;3.00;;;22.20;77.70;;;;;;5102909;28;20470;-78
2023/07/16 04:12:48;;;;;;;21.13;4.13;;;22.20;77.60;;;;;;5099925;28;20491;-77
2023/07/16 04:15:16;;;;;;;10.40;2.60;;;22.20;77.60;;;;;;5099225;28;20724;-76
2023/07/16 04:17:46;;;;;;;19.10;3.20;;;22.20;77.60;;;;;;5101149;28;20583;-77
2023/07/16 04:20:15;;;;;;;9.37;2.50;;;22.20;77.60;;;;;;5096756;27;20986;-77
2023/07/16 04:22:43;;;;;;;15.33;3.40;;;22.20;77.50;;;;;;5100087;28;20448;-77
2023/07/16 04:25:11;;;;;;;8.60;3.00;;;22.20;77.40;;;;;;5101450;28;20456;-77
2023/07/16 04:27:41;;;;;;;9.77;2.60;;;22.10;77.40;;;;;;5098287;27;21052;-77
2023/07/16 04:30:10;;;;;;;16.20;3.57;;;22.00;77.40;;;;;;5101258;28;21216;-78
2023/07/16 04:32:38;;;;;;;24.63;3.63;;;22.00;77.40;;;;;;5103492;28;20462;-77
2023/07/16 04:35:08;;;;;;;9.47;3.20;;;22.00;77.30;;;;;;5103325;28;20472;-76
2023/07/16 04:37:36;;;;;;;14.80;3.30;;;22.10;77.20;;;;;;5102323;27;20571;-77
2023/07/16 04:40:05;;;;;;;16.80;3.57;;;22.10;77.20;;;;;;5103227;27;20460;-77
2023/07/16 04:42:33;;;;;;;16.53;3.77;;;22.10;77.00;;;;;;5100108;27;20462;-76
2023/07/16 04:45:01;;;;;;;22.13;3.30;;;22.00;76.90;;;;;;5097277;28;20451;-77
2023/07/16 04:47:29;;;;;;;19.13;3.87;;;22.00;76.90;;;;;;5103106;28;20448;-78
2023/07/16 04:49:58;;;;;;;20.40;3.87;;;22.00;76.90;;;;;;5102871;27;20463;-77
2023/07/16 04:52:28;;;;;;;12.57;3.33;;;21.90;76.70;;;;;;5100810;28;20452;-78
2023/07/16 04:54:56;;;;;;;16.10;3.00;;;21.90;76.70;;;;;;5106136;28;20554;-78
2023/07/16 04:57:24;;;;;;;19.60;3.60;;;21.80;76.70;;;;;;5100470;27;20844;-77
2023/07/16 04:59:52;;;;;;;9.37;2.70;;;21.80;76.70;;;;;;5099545;28;21026;-78
2023/07/16 05:02:20;;;;;;;11.30;3.57;;;21.80;76.70;;;;;;5098050;28;20498;-78
2023/07/16 05:04:48;;;;;;;10.43;3.20;;;21.80;76.70;;;;;;5095835;28;20472;-78
2023/07/16 05:07:17;;;;;;;11.97;2.97;;;21.80;76.60;;;;;;5101552;27;20564;-77
2023/07/16 05:09:46;;;;;;;13.20;2.90;;;21.80;76.60;;;;;;5108554;27;20989;-78
2023/07/16 05:12:14;;;;;;;10.50;3.17;;;21.80;76.50;;;;;;5102853;28;20475;-77
2023/07/16 05:14:47;;;;;;;14.40;3.00;;;21.80;76.50;;;;;;5100452;27;20460;-78
2023/07/16 05:17:15;;;;;;;15.20;3.43;;;21.80;76.50;;;;;;5099151;28;20487;-77
2023/07/16 05:19:43;;;;;;;10.70;3.00;;;21.80;76.50;;;;;;5095865;28;20460;-78
2023/07/16 05:22:12;;;;;;;9.20;2.87;;;21.80;76.40;;;;;;5103213;28;20993;-78
2023/07/16 05:24:40;;;;;;;9.73;2.60;;;21.80;76.10;;;;;;5098481;28;20531;-78
2023/07/16 05:27:10;;;;;;;12.07;2.73;;;21.70;76.10;;;;;;5101111;28;20459;-78
2023/07/16 05:29:38;;;;;;;9.47;2.47;;;21.70;76.10;;;;;;5104309;28;20471;-77
2023/07/16 05:32:06;;;;;;;12.83;3.10;;;21.70;76.00;;;;;;5098762;28;20480;-78
2023/07/16 05:34:34;;;;;;;13.57;2.80;;;21.70;75.90;;;;;;5100869;28;20464;-78
2023/07/16 05:37:02;;;;;;;12.43;2.87;;;21.70;75.80;;;;;;5103999;28;20512;-77
2023/07/16 05:39:30;;;;;;;14.47;3.17;;;21.70;75.60;;;;;;5101754;28;20455;-78
2023/07/16 05:42:01;;;;;;;14.33;3.33;;;21.70;75.60;;;;;;5106867;27;20452;-78
2023/07/16 05:44:30;;;;;;;9.87;2.47;;;21.70;75.50;;;;;;5101262;28;20752;-78
2023/07/16 05:46:58;;;;;;;14.93;2.87;;;21.70;75.40;;;;;;5099506;28;20918;-77
2023/07/16 05:49:27;;;;;;;9.13;2.83;;;21.80;75.40;;;;;;5097248;28;20457;-78
2023/07/16 05:51:56;;;;;;;16.13;3.00;;;21.90;75.10;;;;;;5103774;28;20547;-78
2023/07/16 05:54:25;;;;;;;7.37;2.50;;;21.90;75.00;;;;;;5107840;27;20452;-78
2023/07/16 05:56:53;;;;;;;9.23;2.97;;;21.90;74.90;;;;;;5100707;28;20584;-79
2023/07/16 05:59:21;;;;;;;10.37;3.07;;;21.90;74.80;;;;;;5100909;28;20462;-78
2023/07/16 06:01:50;;;;;;;12.40;2.93;;;21.90;74.80;;;;;;5097119;28;20563;-79
2023/07/16 06:04:18;;;;;;;11.00;2.40;;;21.90;74.60;;;;;;5104212;28;20470;-78
2023/07/16 06:06:46;;;;;;;10.57;3.30;;;21.90;75.00;;;;;;5102734;28;20957;-78
2023/07/16 06:09:18;;;;;;;11.90;2.67;;;22.20;75.30;;;;;;5106038;28;20471;-78
2023/07/16 06:11:47;;;;;;;14.30;3.20;;;22.70;74.90;;;;;;5101728;28;20508;-79
2023/07/16 06:14:16;;;;;;;12.83;2.53;;;23.80;75.10;;;;;;5102153;28;20546;-79
2023/07/16 06:16:44;;;;;;;9.30;2.83;;;25.50;72.50;;;;;;5101620;28;20459;-79
2023/07/16 06:19:14;;;;;;;8.90;2.30;;;26.60;69.90;;;;;;5105870;28;20456;-78
2023/07/16 06:21:42;;;;;;;9.07;2.50;;;27.80;67.30;;;;;;5101982;28;20443;-78
2023/07/16 06:24:10;;;;;;;13.67;2.00;;;28.10;65.70;;;;;;5105720;27;20467;-78
2023/07/16 06:26:42;;;;;;;10.20;2.17;;;28.10;65.00;;;;;;5099061;28;21002;-78
2023/07/16 06:29:10;;;;;;;10.90;2.33;;;27.70;64.10;;;;;;5099901;28;20506;-78
2023/07/16 06:31:38;;;;;;;9.47;2.47;;;27.10;64.20;;;;;;5098978;28;20471;-78
2023/07/16 06:34:06;;;;;;;8.83;2.20;;;26.60;64.70;;;;;;5103167;28;21145;-79
2023/07/16 06:36:36;;;;;;;8.77;2.13;;;26.10;65.00;;;;;;5100824;28;20469;-78
2023/07/16 06:39:04;;;;;;;6.47;2.30;;;25.60;65.30;;;;;;5099282;28;20489;-78
2023/07/16 06:41:32;;;;;;;14.17;2.80;;;25.20;65.70;;;;;;5101408;28;20999;-79
2023/07/16 06:44:00;;;;;;;8.30;2.90;;;24.80;66.20;;;;;;5100620;28;20464;-78
2023/07/16 06:46:28;;;;;;;10.93;3.17;;;24.50;66.70;;;;;;5105274;28;20460;-78
2023/07/16 06:48:56;;;;;;;9.33;2.40;;;24.20;67.10;;;;;;5100250;28;20476;-78
2023/07/16 06:51:24;;;;;;;16.03;2.80;;;24.00;67.40;;;;;;5097500;28;20464;-78
2023/07/16 06:53:54;;;;;;;13.10;3.27;;;23.90;67.70;;;;;;5099413;28;21192;-77
2023/07/16 06:56:22;;;;;;;12.20;2.77;;;23.80;68.10;;;;;;5100047;28;20456;-78
2023/07/16 06:58:49;;;;;;;11.53;3.00;;;23.70;68.30;;;;;;5102012;28;20480;-78
2023/07/16 07:01:17;;;;;;;7.00;2.60;;;23.50;68.50;;;;;;5098320;28;20472;-78
2023/07/16 07:03:46;;;;;;;12.07;2.60;;;23.40;68.60;;;;;;5097064;28;20460;-78
2023/07/16 07:06:14;;;;;;;15.20;2.93;;;23.30;68.70;;;;;;5099568;28;20555;-78
2023/07/16 07:08:42;;;;;;;9.83;2.90;;;23.20;68.90;;;;;;5094940;28;20514;-78
2023/07/16 07:11:12;;;;;;;7.37;2.73;;;23.20;69.00;;;;;;5097500;28;20464;-79
2023/07/16 07:13:40;;;;;;;7.43;2.27;;;23.10;69.10;;;;;;5097159;28;20953;-78
2023/07/16 07:16:08;;;;;;;8.47;2.40;;;23.10;69.10;;;;;;5098891;28;20455;-78
2023/07/16 07:18:36;;;;;;;7.90;2.70;;;23.10;69.20;;;;;;5101055;28;20483;-78
2023/07/16 07:21:04;;;;;;;8.77;3.00;;;23.00;69.20;;;;;;5102188;28;20490;-78
2023/07/16 07:23:32;;;;;;;5.93;2.50;;;23.00;69.30;;;;;;5099663;28;20551;-78
2023/07/16 07:26:00;;;;;;;11.30;2.73;;;23.10;69.30;;;;;;5098053;28;21196;-78
2023/07/16 07:28:29;;;;;;;8.67;2.30;;;23.10;69.30;;;;;;5101572;28;20457;-78
2023/07/16 07:30:58;;;;;;;11.03;2.87;;;23.20;69.30;;;;;;5092608;28;20741;-79
2023/07/16 07:33:26;;;;;;;10.33;2.50;;;23.20;69.30;;;;;;5091084;28;20464;-79
2023/07/16 07:35:55;;;;;;;8.33;2.97;;;23.20;69.50;;;;;;5101233;28;20460;-79
2023/07/16 07:38:23;;;;;;;6.27;2.70;;;23.20;69.50;;;;;;5099717;28;20478;-79
2023/07/16 07:40:51;;;;;;;9.47;2.50;;;23.20;69.40;;;;;;5103649;28;20487;-78
2023/07/16 07:43:19;;;;;;;7.60;2.30;;;23.20;69.40;;;;;;5101156;28;20474;-78
2023/07/16 07:45:48;;;;;;;7.57;2.57;;;23.20;69.30;;;;;;5100767;28;20832;-77
2023/07/16 07:48:16;;;;;;;6.17;2.50;;;23.30;69.50;;;;;;5100571;28;20470;-78
2023/07/16 07:50:44;;;;;;;10.50;2.53;;;23.30;69.40;;;;;;5102605;28;20537;-77
2023/07/16 07:53:14;;;;;;;8.97;2.60;;;23.40;69.20;;;;;;5104934;28;20464;-76
2023/07/16 07:55:42;;;;;;;7.60;2.87;;;23.40;69.00;;;;;;5106063;28;20550;-77
2023/07/16 07:58:10;;;;;;;9.77;2.90;;;23.40;68.70;;;;;;5103636;28;20499;-79
2023/07/16 08:00:38;;;;;;;10.73;2.60;;;23.30;68.80;;;;;;5103217;27;21195;-79
2023/07/16 08:03:07;;;;;;;8.73;2.80;;;23.30;68.80;;;;;;5099749;28;20464;-78
2023/07/16 08:05:35;;;;;;;11.13;2.80;;;23.30;68.80;;;;;;5103991;28;20521;-79
2023/07/16 08:08:04;;;;;;;9.47;2.63;;;23.30;68.70;;;;;;5102177;28;20452;-78
2023/07/16 08:10:32;;;;;;;8.23;2.83;;;23.30;68.70;;;;;;5098688;28;20463;-78
2023/07/16 08:13:02;;;;;;;10.70;2.60;;;23.30;68.70;;;;;;5098119;28;21117;-78
2023/07/16 08:15:30;;;;;;;14.60;3.00;;;23.20;68.40;;;;;;5101462;28;20464;-78
2023/07/16 08:17:59;;;;;;;10.67;2.83;;;23.20;68.40;;;;;;5101531;28;20461;-79
2023/07/16 08:20:30;;;;;;;8.10;2.53;;;23.20;68.40;;;;;;5105848;27;20524;-78
2023/07/16 08:22:58;;;;;;;7.40;2.73;;;23.20;68.50;;;;;;5100320;28;20558;-78
2023/07/16 08:25:26;;;;;;;11.27;2.87;;;23.20;68.50;;;;;;5103570;28;20949;-78
2023/07/16 08:27:55;;;;;;;7.33;2.30;;;23.30;68.30;;;;;;5103809;27;20512;-79
2023/07/16 08:30:24;;;;;;;10.50;2.60;;;23.30;67.80;;;;;;5102508;28;20464;-79
2023/07/16 08:32:53;;;;;;;7.67;2.27;;;23.30;67.70;;;;;;5108693;28;21214;-79
2023/07/16 08:35:21;;;;;;;7.77;2.67;;;23.30;67.60;;;;;;5100054;27;20457;-78
2023/07/16 08:37:51;;;;;;;12.10;2.50;;;23.40;67.40;;;;;;5107796;27;20468;-80
2023/07/16 08:40:21;;;;;;;11.60;2.40;;;23.40;67.20;;;;;;5101351;27;20472;-79
2023/07/16 08:42:50;;;;;;;9.27;2.97;;;23.40;67.00;;;;;;5094587;28;20472;-79
2023/07/16 08:45:22;;;;;;;9.13;2.73;;;23.50;66.90;;;;;;5112477;27;20461;-79
2023/07/16 08:47:50;;;;;;;6.23;2.73;;;23.50;66.80;;;;;;5101420;27;20464;-78
2023/07/16 08:50:22;;;;;;;9.60;2.53;;;23.50;66.60;;;;;;5098129;28;20453;-79
2023/07/16 08:52:53;;;;;;;9.13;2.50;;;23.50;66.50;;;;;;5104659;28;20460;-78
2023/07/16 08:55:22;;;;;;;6.00;2.10;;;23.50;66.50;;;;;;5104482;28;20563;-78
2023/07/16 08:57:50;;;;;;;10.30;2.57;;;23.60;66.30;;;;;;5101919;27;20551;-79
2023/07/16 09:00:19;;;;;;;6.37;2.23;;;23.60;66.10;;;;;;5103924;27;20507;-79
2023/07/16 09:02:47;;;;;;;12.00;2.60;;;23.60;66.00;;;;;;5104794;27;20549;-78
2023/07/16 09:05:20;;;;;;;11.97;3.10;;;23.70;66.10;;;;;;5103256;28;20460;-78
2023/07/16 09:08:07;;;;;;;10.20;2.97;;;23.80;66.10;;;;;;5103902;28;20462;-78
2023/07/16 09:10:35;;;;;;;8.10;2.37;;;23.80;65.90;;;;;;5097925;28;20510;-79
2023/07/16 09:13:04;;;;;;;11.87;3.07;;;23.80;65.70;;;;;;5100804;28;20460;-78
2023/07/16 09:15:33;;;;;;;8.83;3.00;;;23.90;65.60;;;;;;5096189;28;20453;-78
2023/07/16 09:18:02;;;;;;;10.50;3.30;;;23.90;65.60;;;;;;5096642;28;20452;-78
2023/07/16 09:20:31;;;;;;;12.90;2.60;;;23.90;65.50;;;;;;5097630;28;20480;-78
2023/07/16 09:22:59;;;;;;;7.47;2.77;;;23.90;65.40;;;;;;5097313;28;20456;-79
2023/07/16 09:25:29;;;;;;;6.90;2.23;;;23.80;65.20;;;;;;5101744;28;20458;-79
2023/07/16 09:27:58;;;;;;;10.47;2.37;;;23.90;65.10;;;;;;5096230;28;20455;-78
2023/07/16 09:30:31;;;;;;;9.17;3.23;;;23.90;65.10;;;;;;5090191;28;20572;-78
2023/07/16 09:32:59;;;;;;;9.00;3.00;;;24.00;65.10;;;;;;5096191;28;20455;-78
2023/07/16 09:35:26;;;;;;;9.10;2.33;;;24.00;64.80;;;;;;5099599;28;20452;-78
2023/07/16 09:37:54;;;;;;;8.83;2.40;;;24.10;64.70;;;;;;5103136;27;20458;-78
2023/07/16 09:40:23;;;;;;;8.87;2.63;;;24.10;64.60;;;;;;5107779;28;20471;-78
2023/07/16 09:42:53;;;;;;;9.83;2.17;;;24.20;64.70;;;;;;5097177;28;20476;-78
2023/07/16 09:45:21;;;;;;;9.03;2.60;;;24.20;64.50;;;;;;5101854;28;20460;-78
2023/07/16 09:47:49;;;;;;;9.00;2.50;;;24.30;64.30;;;;;;5103017;28;20495;-77
2023/07/16 09:50:17;;;;;;;11.10;2.87;;;24.40;64.00;;;;;;5098991;28;20995;-78
2023/07/16 09:52:47;;;;;;;8.80;3.00;;;24.40;63.90;;;;;;5101885;28;20452;-78
2023/07/16 09:55:17;;;;;;;8.97;2.93;;;24.50;63.80;;;;;;5102682;28;20471;-77
2023/07/16 09:57:45;;;;;;;15.00;3.50;;;24.60;63.60;;;;;;5094919;28;21277;-77
2023/07/16 10:00:17;;;;;;;9.60;2.97;;;24.60;63.50;;;;;;5097913;28;21283;-77
2023/07/16 10:02:46;;;;;;;7.50;2.30;;;24.70;63.20;;;;;;5099010;27;20982;-77
2023/07/16 10:05:14;;;;;;;8.57;2.50;;;24.70;62.90;;;;;;5100814;28;20891;-76
2023/07/16 10:07:43;;;;;;;11.80;2.90;;;24.70;62.50;;;;;;5098976;28;20547;-76
2023/07/16 10:10:12;;;;;;;12.60;3.00;;;24.70;62.30;;;;;;5105924;28;20456;-76
2023/07/16 10:12:42;;;;;;;13.37;2.90;;;24.70;62.20;;;;;;5098719;28;20474;-76
2023/07/16 10:15:13;;;;;;;7.70;2.83;;;24.60;62.20;;;;;;5101943;28;20471;-76
2023/07/16 10:17:51;;;;;;;7.50;2.00;;;24.60;61.90;;;;;;5103945;28;21070;-76
2023/07/16 10:20:30;;;;;;;7.40;2.53;;;24.50;61.70;;;;;;5101825;28;20486;-77
2023/07/16 10:22:58;;;;;;;8.63;2.90;;;24.50;61.60;;;;;;5098945;28;20516;-77
2023/07/16 10:25:29;;;;;;;6.80;2.43;;;24.50;61.40;;;;;;5099840;28;20544;-76
2023/07/16 10:27:57;;;;;;;9.40;2.23;;;24.50;61.00;;;;;;5103243;28;20866;-77
2023/07/16 10:30:25;;;;;;;10.07;2.90;;;24.50;60.70;;;;;;5100257;28;20558;-77
2023/07/16 10:32:55;;;;;;;8.43;2.23;;;24.50;60.70;;;;;;5098380;28;20823;-77
2023/07/16 10:35:23;;;;;;;12.17;2.60;;;24.50;60.90;;;;;;5100692;28;20543;-76
2023/07/16 10:37:51;;;;;;;10.10;2.70;;;24.50;61.00;;;;;;5100968;28;20460;-77
2023/07/16 10:40:19;;;;;;;9.50;2.93;;;24.50;60.90;;;;;;5097478;28;20472;-76
2023/07/16 10:42:47;;;;;;;8.87;3.07;;;24.50;60.80;;;;;;5097756;28;20489;-76
2023/07/16 10:45:15;;;;;;;7.70;2.83;;;24.50;60.60;;;;;;5098005;28;20444;-76
2023/07/16 10:47:53;;;;;;;10.87;3.17;;;24.50;60.70;;;;;;5095966;28;20499;-76
2023/07/16 10:50:23;;;;;;;7.70;3.30;;;24.50;60.70;;;;;;5096381;28;20444;-77
2023/07/16 10:52:53;;;;;;;9.00;2.80;;;24.50;60.70;;;;;;5099352;28;20447;-75
2023/07/16 10:55:22;;;;;;;7.30;2.87;;;24.50;60.60;;;;;;5098540;28;20467;-76
2023/07/16 10:57:52;;;;;;;9.40;3.03;;;24.50;60.40;;;;;;5095185;28;20971;-77
2023/07/16 11:00:22;;;;;;;9.70;3.00;;;24.50;60.50;;;;;;5096515;28;20567;-75
2023/07/16 11:02:51;;;;;;;8.90;3.07;;;24.50;60.70;;;;;;5096047;28;20906;-76
2023/07/16 11:05:20;;;;;;;8.07;2.80;;;24.60;60.70;;;;;;5094226;28;20456;-77
2023/07/16 11:07:51;;;;;;;10.73;2.93;;;24.70;60.60;;;;;;5094440;28;20536;-75
2023/07/16 11:10:25;;;;;;;7.67;3.20;;;24.70;60.80;;;;;;5096667;28;20462;-76
2023/07/16 11:12:56;;;;;;;6.37;2.80;;;24.70;60.90;;;;;;5096220;28;20517;-77
2023/07/16 11:15:34;;;;;;;9.00;2.77;;;24.70;61.00;;;;;;5098191;28;20459;-76
2023/07/16 11:18:04;;;;;;;9.80;3.27;;;24.80;61.10;;;;;;5097721;28;20470;-76
2023/07/16 11:20:33;;;;;;;9.03;3.20;;;24.90;61.20;;;;;;5101377;27;20501;-76
2023/07/16 11:23:03;;;;;;;7.30;2.70;;;24.90;61.00;;;;;;5096166;28;20454;-76
2023/07/16 11:25:31;;;;;;;9.90;3.30;;;25.00;61.00;;;;;;5099018;28;20561;-76
2023/07/16 11:28:02;;;;;;;10.40;3.30;;;25.10;60.90;;;;;;5102755;28;20455;-75
2023/07/16 11:30:30;;;;;;;8.90;3.17;;;25.10;60.90;;;;;;5100616;28;20452;-76
2023/07/16 11:32:59;;;;;;;11.43;2.73;;;25.20;60.70;;;;;;5099569;28;20464;-76
2023/07/16 11:35:28;;;;;;;12.33;3.20;;;25.20;60.50;;;;;;5101009;28;20459;-77
2023/07/16 11:37:57;;;;;;;10.57;3.23;;;25.20;60.40;;;;;;5101382;27;20470;-74
2023/07/16 11:40:26;;;;;;;11.10;3.43;;;25.20;60.40;;;;;;5097674;28;20463;-76
2023/07/16 11:42:55;;;;;;;7.00;2.47;;;25.20;60.30;;;;;;5098862;27;21002;-77
2023/07/16 11:45:26;;;;;;;10.10;2.90;;;25.30;60.30;;;;;;5099484;27;20451;-77
2023/07/16 11:47:55;;;;;;;8.20;3.30;;;25.30;60.30;;;;;;5103742;28;20466;-76
2023/07/16 11:50:23;;;;;;;10.37;4.00;;;25.40;60.10;;;;;;5101040;27;21106;-76
2023/07/16 11:52:55;;;;;;;8.33;2.43;;;25.40;59.70;;;;;;5100886;28;20580;-75
2023/07/16 11:55:24;;;;;;;11.80;3.17;;;25.50;59.60;;;;;;5098280;28;20970;-77
2023/07/16 11:57:56;;;;;;;9.67;3.37;;;25.50;59.50;;;;;;5097591;28;20464;-76
2023/07/16 12:00:24;;;;;;;10.27;3.40;;;25.50;59.40;;;;;;5095832;28;20787;-75
2023/07/16 12:02:53;;;;;;;10.43;3.30;;;25.60;59.40;;;;;;5098271;28;20476;-76
2023/07/16 12:05:24;;;;;;;7.63;2.60;;;25.60;59.10;;;;;;5094888;28;20464;-76
2023/07/16 12:08:14;;;;;;;6.50;2.47;;;25.50;59.00;;;;;;5104715;27;20555;-76
2023/07/16 12:10:43;;;;;;;11.13;3.50;;;25.50;59.00;;;;;;5100452;28;20456;-77
2023/07/16 12:13:12;;;;;;;10.13;3.33;;;25.50;58.80;;;;;;5100164;27;20456;-78
2023/07/16 12:15:40;;;;;;;5.60;2.57;;;25.40;58.80;;;;;;5105226;28;21022;-76
2023/07/16 12:18:08;;;;;;;10.20;3.00;;;25.40;58.80;;;;;;5102104;27;20463;-77
2023/07/16 12:20:37;;;;;;;7.60;2.70;;;25.30;58.80;;;;;;5098245;28;20518;-75
2023/07/16 12:23:05;;;;;;;8.27;2.40;;;25.40;58.80;;;;;;5102383;28;20456;-77
2023/07/16 12:25:33;;;;;;;8.67;2.53;;;25.40;59.00;;;;;;5098802;28;20453;-77
2023/07/16 12:28:02;;;;;;;8.23;2.70;;;25.40;59.00;;;;;;5097941;28;20461;-77
2023/07/16 12:30:31;;;;;;;11.97;3.13;;;25.50;58.90;;;;;;5102541;28;20579;-76
2023/07/16 12:32:59;;;;;;;7.10;2.50;;;25.50;58.90;;;;;;5099922;28;20463;-76
2023/07/16 12:35:27;;;;;;;7.40;2.80;;;25.60;58.70;;;;;;5100709;28;20515;-76
2023/07/16 12:37:58;;;;;;;9.00;3.30;;;25.60;58.60;;;;;;5101645;28;20460;-76
2023/07/16 12:40:26;;;;;;;13.50;3.20;;;25.60;58.40;;;;;;5101211;28;20460;-76
2023/07/16 12:42:54;;;;;;;6.97;2.60;;;25.60;58.40;;;;;;5101673;28;20456;-76
2023/07/16 12:45:22;;;;;;;7.80;2.40;;;25.60;58.40;;;;;;5098521;27;20543;-76
2023/07/16 12:47:51;;;;;;;8.93;3.07;;;25.60;57.90;;;;;;5098122;28;21245;-75
2023/07/16 12:50:20;;;;;;;7.03;2.90;;;25.60;57.90;;;;;;5103736;28;20500;-74
2023/07/16 12:52:48;;;;;;;7.20;2.93;;;25.60;57.80;;;;;;5097747;28;20547;-77